Time;durP1;ratioP1;P1;durP2;ratioP2;P2;SDS_P1;SDS_P2;PMS_P1;PMS_P2;Temp;Humidity;BMP_temperature;BMP_pressure;BME280_temperature;BME280_humidity;BME280_pressure;Samples;Min_cycle;Max_cycle;Signal;HPM_P1;HPM_P2
2023/07/03 00:02:28;;;;;;;9.93;8.93;;;24.30;91.00;;;;;;6201056;28;89015;-67
2023/07/03 00:05:30;;;;;;;10.82;9.38;;;24.30;91.00;;;;;;6201196;28;88669;-67
2023/07/03 00:08:32;;;;;;;9.15;8.23;;;24.30;91.00;;;;;;6199657;28;89024;-68
2023/07/03 00:11:36;;;;;;;9.32;8.43;;;24.30;91.00;;;;;;6191253;28;89117;-67
2023/07/03 00:14:38;;;;;;;9.88;8.68;;;24.30;91.00;;;;;;6201182;28;90267;-67
2023/07/03 00:17:40;;;;;;;10.15;9.07;;;24.30;90.90;;;;;;6214690;28;89160;-66
2023/07/03 00:20:42;;;;;;;10.75;8.82;;;24.20;90.90;;;;;;6197903;28;89063;-66
2023/07/03 00:23:44;;;;;;;10.15;9.15;;;24.20;90.90;;;;;;6207013;28;89069;-67
2023/07/03 00:26:47;;;;;;;9.75;8.75;;;24.30;90.90;;;;;;6185195;28;89136;-67
2023/07/03 00:29:49;;;;;;;11.05;8.80;;;24.20;90.90;;;;;;6195905;28;89043;-66
2023/07/03 00:32:51;;;;;;;9.65;8.65;;;24.20;90.90;;;;;;6205716;28;88781;-66
2023/07/03 00:35:53;;;;;;;9.65;8.65;;;24.20;90.90;;;;;;6198458;28;87426;-67
2023/07/03 00:38:58;;;;;;;9.30;8.38;;;24.20;90.90;;;;;;6188873;28;89039;-66
2023/07/03 00:42:02;;;;;;;10.10;8.98;;;24.20;90.90;;;;;;6196498;28;89024;-67
2023/07/03 00:45:08;;;;;;;10.07;8.45;;;24.20;90.90;;;;;;6196908;28;88775;-66
2023/07/03 00:48:10;;;;;;;9.25;7.97;;;24.20;90.90;;;;;;6209025;28;89094;-67
2023/07/03 00:51:15;;;;;;;9.95;8.68;;;24.20;90.90;;;;;;6212227;28;89184;-67
2023/07/03 00:54:17;;;;;;;9.77;8.15;;;24.20;90.90;;;;;;6199261;28;88341;-67
2023/07/03 00:57:23;;;;;;;9.15;8.25;;;24.20;90.80;;;;;;6200747;28;89113;-67
2023/07/03 01:00:34;;;;;;;9.40;8.50;;;24.20;90.80;;;;;;6195977;28;89205;-67
2023/07/03 01:03:39;;;;;;;9.88;8.65;;;24.20;90.80;;;;;;6209470;28;89037;-67
2023/07/03 01:06:44;;;;;;;9.30;8.30;;;24.20;90.80;;;;;;6192620;28;88429;-67
2023/07/03 01:09:52;;;;;;;9.82;8.82;;;24.20;90.80;;;;;;6195289;28;89397;-67
2023/07/03 01:12:59;;;;;;;9.27;8.30;;;24.20;90.80;;;;;;6192836;28;89360;-67
2023/07/03 01:16:05;;;;;;;9.88;8.85;;;24.20;90.80;;;;;;6200254;28;90418;-67
2023/07/03 01:19:24;;;;;;;9.05;8.15;;;24.20;90.80;;;;;;6203500;28;89064;-67
2023/07/03 01:22:29;;;;;;;11.52;9.05;;;24.20;90.80;;;;;;6202022;28;87921;-67
2023/07/03 01:25:36;;;;;;;9.32;8.18;;;24.20;90.80;;;;;;6206950;28;89018;-67
2023/07/03 01:28:40;;;;;;;9.25;8.35;;;24.20;90.70;;;;;;6201256;28;88983;-67
2023/07/03 01:31:43;;;;;;;9.05;8.15;;;24.10;90.70;;;;;;6229846;28;89155;-67
2023/07/03 01:34:46;;;;;;;9.07;8.18;;;24.20;90.80;;;;;;6208528;28;89152;-67
2023/07/03 01:37:50;;;;;;;9.48;8.48;;;24.10;90.80;;;;;;6202548;28;88392;-67
2023/07/03 01:40:54;;;;;;;9.02;8.13;;;24.10;90.80;;;;;;6193175;28;89397;-67
2023/07/03 01:43:56;;;;;;;8.55;7.75;;;24.10;90.80;;;;;;6192674;28;89066;-67
2023/07/03 01:47:05;;;;;;;9.10;8.20;;;24.10;90.80;;;;;;6192509;28;90459;-67
2023/07/03 01:50:10;;;;;;;9.20;8.25;;;24.10;90.80;;;;;;6197412;28;89361;-67
2023/07/03 01:53:20;;;;;;;9.02;8.07;;;24.20;90.70;;;;;;6181229;28;89204;-67
2023/07/03 01:56:28;;;;;;;11.38;8.77;;;24.20;90.70;;;;;;6223998;28;89160;-67
2023/07/03 01:59:34;;;;;;;8.80;7.90;;;24.10;90.70;;;;;;6200920;28;89324;-67
2023/07/03 02:02:37;;;;;;;11.35;8.55;;;24.10;90.70;;;;;;6195210;28;89085;-67
2023/07/03 02:05:40;;;;;;;9.82;8.80;;;24.10;90.70;;;;;;6192694;28;89001;-67
2023/07/03 02:08:43;;;;;;;9.15;8.25;;;24.10;90.70;;;;;;6206222;28;87237;-67
2023/07/03 02:11:48;;;;;;;9.25;8.20;;;24.10;90.70;;;;;;6182674;28;89403;-68
2023/07/03 02:14:50;;;;;;;9.00;8.10;;;24.10;90.70;;;;;;6195499;28;89056;-67
2023/07/03 02:17:53;;;;;;;9.20;8.30;;;24.10;90.80;;;;;;6190197;28;90167;-67
2023/07/03 02:20:55;;;;;;;9.02;8.10;;;24.10;90.70;;;;;;6215681;28;88370;-67
2023/07/03 02:23:57;;;;;;;10.02;8.50;;;24.10;90.70;;;;;;6210828;28;89020;-67
2023/07/03 02:27:00;;;;;;;10.38;8.40;;;24.10;90.80;;;;;;6207030;28;89069;-67
2023/07/03 02:30:02;;;;;;;9.90;8.68;;;24.10;90.80;;;;;;6200858;28;89188;-67
2023/07/03 02:33:04;;;;;;;9.50;8.50;;;24.10;90.80;;;;;;6212451;28;89079;-67
2023/07/03 02:36:06;;;;;;;8.88;8.02;;;24.10;90.80;;;;;;6208718;28;87949;-67
2023/07/03 02:39:09;;;;;;;8.90;7.75;;;24.10;90.80;;;;;;6200498;28;88375;-67
2023/07/03 02:42:12;;;;;;;9.45;8.45;;;24.10;90.80;;;;;;6194740;28;89475;-67
2023/07/03 02:45:14;;;;;;;9.25;8.25;;;24.10;90.80;;;;;;6195725;28;89133;-67
2023/07/03 02:48:16;;;;;;;9.65;7.97;;;24.10;90.80;;;;;;6194485;28;90095;-67
2023/07/03 02:51:18;;;;;;;8.95;8.05;;;24.10;90.80;;;;;;6211591;28;89116;-67
2023/07/03 02:54:20;;;;;;;9.77;8.10;;;24.10;90.70;;;;;;6201285;28;89127;-67
2023/07/03 02:57:24;;;;;;;11.80;8.98;;;24.10;90.80;;;;;;6192353;28;88255;-68
2023/07/03 03:00:27;;;;;;;9.20;8.30;;;24.10;90.80;;;;;;6218681;28;89397;-67
2023/07/03 03:03:31;;;;;;;9.30;8.13;;;24.10;90.80;;;;;;6215380;28;89529;-67
2023/07/03 03:06:33;;;;;;;10.77;8.32;;;24.10;90.80;;;;;;6213348;28;88002;-67
2023/07/03 03:09:35;;;;;;;9.07;7.93;;;24.00;90.80;;;;;;6219609;28;88524;-67
2023/07/03 03:12:38;;;;;;;9.23;8.32;;;24.00;90.70;;;;;;6219739;28;89071;-67
2023/07/03 03:15:42;;;;;;;9.02;7.90;;;24.00;90.80;;;;;;6203336;28;89186;-67
2023/07/03 03:18:44;;;;;;;9.40;8.40;;;24.00;90.70;;;;;;6211021;28;89938;-67
2023/07/03 03:21:49;;;;;;;10.20;8.90;;;24.00;90.70;;;;;;6210573;28;87628;-67
2023/07/03 03:24:51;;;;;;;9.43;8.43;;;24.00;90.70;;;;;;6197661;28;87986;-67
2023/07/03 03:27:55;;;;;;;9.20;8.30;;;24.00;90.70;;;;;;6204887;28;91363;-67
2023/07/03 03:30:57;;;;;;;11.13;8.55;;;24.00;90.70;;;;;;6207186;28;88951;-66
2023/07/03 03:33:59;;;;;;;10.48;8.88;;;24.00;91.00;;;;;;6207896;28;89153;-67
2023/07/03 03:37:02;;;;;;;8.90;8.00;;;24.00;90.60;;;;;;6197201;28;89273;-66
2023/07/03 03:40:07;;;;;;;10.80;8.90;;;24.00;90.60;;;;;;6196422;28;88642;-67
2023/07/03 03:43:11;;;;;;;10.15;8.75;;;24.00;90.60;;;;;;6194819;28;89480;-67
2023/07/03 03:46:13;;;;;;;9.23;8.32;;;24.00;90.50;;;;;;6198580;28;89087;-67
2023/07/03 03:49:15;;;;;;;9.95;8.90;;;24.00;90.40;;;;;;6197089;28;89939;-67
2023/07/03 03:52:17;;;;;;;9.60;8.60;;;24.00;90.40;;;;;;6208569;28;89142;-67
2023/07/03 03:55:19;;;;;;;10.75;9.30;;;24.00;90.30;;;;;;6210488;28;89167;-67
2023/07/03 03:58:23;;;;;;;11.82;10.07;;;24.10;90.20;;;;;;6221066;28;89069;-67
2023/07/03 04:01:25;;;;;;;12.55;9.98;;;24.00;90.10;;;;;;6213704;28;89094;-67
2023/07/03 04:04:27;;;;;;;10.27;8.90;;;24.00;90.20;;;;;;6186578;28;88125;-67
2023/07/03 04:07:29;;;;;;;10.98;9.85;;;24.00;90.10;;;;;;6184718;28;89521;-66
2023/07/03 04:10:31;;;;;;;10.80;9.70;;;24.00;90.10;;;;;;6185475;28;88476;-67
2023/07/03 04:13:35;;;;;;;11.15;9.90;;;24.00;90.00;;;;;;6190372;28;89852;-67
2023/07/03 04:16:37;;;;;;;10.88;9.77;;;24.00;90.00;;;;;;6198759;28;89026;-67
2023/07/03 04:19:39;;;;;;;10.85;9.75;;;24.00;89.80;;;;;;6210469;28;90011;-67
2023/07/03 04:22:41;;;;;;;12.10;10.38;;;24.00;89.80;;;;;;6195042;28;89229;-67
2023/07/03 04:25:43;;;;;;;13.05;10.73;;;23.90;89.60;;;;;;6214934;28;89217;-65
2023/07/03 04:28:47;;;;;;;11.00;9.90;;;24.00;89.60;;;;;;6206208;28;89103;-68
2023/07/03 04:31:49;;;;;;;11.40;10.25;;;24.00;89.60;;;;;;6199168;28;89052;-67
2023/07/03 04:34:51;;;;;;;10.38;9.27;;;24.00;89.60;;;;;;6212696;28;89329;-67
2023/07/03 04:37:53;;;;;;;11.73;10.10;;;24.00;89.50;;;;;;6219924;28;89098;-67
2023/07/03 04:40:56;;;;;;;11.80;10.60;;;24.00;89.40;;;;;;6201945;28;88397;-67
2023/07/03 04:44:00;;;;;;;10.68;9.57;;;24.00;89.40;;;;;;6199220;28;89108;-67
2023/07/03 04:47:04;;;;;;;11.10;9.93;;;24.00;89.30;;;;;;6211964;28;89251;-67
2023/07/03 04:50:08;;;;;;;11.57;10.38;;;24.00;89.30;;;;;;6204516;28;90205;-68
2023/07/03 04:53:11;;;;;;;12.07;10.10;;;23.90;89.30;;;;;;6212953;28;87834;-68
2023/07/03 04:56:15;;;;;;;11.73;10.25;;;23.90;89.10;;;;;;6202747;28;89108;-68
2023/07/03 04:59:19;;;;;;;12.90;10.68;;;24.00;88.90;;;;;;6192480;28;89485;-67
2023/07/03 05:02:21;;;;;;;13.10;11.00;;;23.90;89.00;;;;;;6210585;28;89138;-68
2023/07/03 05:05:23;;;;;;;12.80;11.15;;;24.00;90.50;;;;;;6207107;28;89158;-68
2023/07/03 05:08:25;;;;;;;12.55;11.25;;;24.00;90.40;;;;;;6185996;28;89077;-68
2023/07/03 05:11:27;;;;;;;12.65;10.68;;;24.10;90.10;;;;;;6203669;28;88589;-69
2023/07/03 05:14:30;;;;;;;12.15;10.30;;;24.10;90.00;;;;;;6184015;28;88978;-69
2023/07/03 05:17:34;;;;;;;12.68;10.90;;;24.10;90.00;;;;;;6219092;28;89176;-69
2023/07/03 05:20:37;;;;;;;11.43;10.23;;;24.10;89.90;;;;;;6195629;28;90161;-70
2023/07/03 05:23:39;;;;;;;12.27;10.45;;;24.10;90.00;;;;;;6197916;28;89093;-69
2023/07/03 05:26:41;;;;;;;12.73;10.55;;;24.10;90.00;;;;;;6202339;28;89110;-70
2023/07/03 05:29:44;;;;;;;12.02;10.55;;;24.10;90.10;;;;;;6211348;28;89039;-67
2023/07/03 05:32:46;;;;;;;12.65;10.48;;;24.10;90.20;;;;;;6198155;28;89042;-67
2023/07/03 05:35:48;;;;;;;13.50;11.20;;;24.10;90.30;;;;;;6200073;28;87952;-67
2023/07/03 05:38:50;;;;;;;11.60;10.20;;;24.10;90.20;;;;;;6208528;28;89325;-67
2023/07/03 05:41:52;;;;;;;13.90;10.52;;;24.10;90.30;;;;;;6199855;28;88652;-67
2023/07/03 05:44:55;;;;;;;12.70;9.95;;;24.10;90.30;;;;;;6215725;28;89389;-67
2023/07/03 05:47:57;;;;;;;14.27;10.75;;;24.10;90.30;;;;;;6202204;28;87907;-67
2023/07/03 05:50:59;;;;;;;12.15;10.25;;;24.10;90.40;;;;;;6200753;28;90356;-67
2023/07/03 05:54:01;;;;;;;11.93;10.15;;;24.10;90.40;;;;;;6205729;28;89045;-67
2023/07/03 05:57:05;;;;;;;11.88;10.40;;;24.10;90.30;;;;;;6221724;28;88028;-67
2023/07/03 06:00:13;;;;;;;16.38;11.32;;;24.10;90.30;;;;;;6221850;28;89034;-67
2023/07/03 06:03:15;;;;;;;12.60;11.18;;;24.10;90.20;;;;;;6207546;28;89167;-67
2023/07/03 06:06:17;;;;;;;18.48;11.38;;;24.10;90.10;;;;;;6215913;28;87765;-67
2023/07/03 06:09:19;;;;;;;15.63;11.57;;;24.10;90.00;;;;;;6203438;28;89501;-67
2023/07/03 06:12:25;;;;;;;12.95;11.02;;;24.10;89.90;;;;;;6203150;28;88353;-67
2023/07/03 06:15:28;;;;;;;14.05;11.05;;;24.00;89.40;;;;;;6202413;28;88831;-67
2023/07/03 06:18:30;;;;;;;12.57;11.02;;;24.00;89.10;;;;;;6204010;28;88974;-67
2023/07/03 06:21:32;;;;;;;13.23;11.32;;;24.00;88.80;;;;;;6197406;28;90344;-67
2023/07/03 06:24:34;;;;;;;13.50;11.27;;;24.00;88.40;;;;;;6203315;28;89063;-67
2023/07/03 06:27:36;;;;;;;14.07;11.52;;;24.00;88.10;;;;;;6201067;28;89430;-67
2023/07/03 06:30:46;;;;;;;14.88;12.07;;;24.10;88.00;;;;;;6209734;28;89092;-67
2023/07/03 06:33:48;;;;;;;15.75;12.35;;;24.10;87.80;;;;;;6202863;28;89099;-67
2023/07/03 06:36:50;;;;;;;17.13;12.15;;;24.10;87.60;;;;;;6199463;28;89069;-67
2023/07/03 06:39:52;;;;;;;14.73;11.38;;;24.00;87.40;;;;;;6204799;28;89000;-67
2023/07/03 06:42:54;;;;;;;15.63;12.48;;;24.00;87.20;;;;;;6191328;28;88430;-67
2023/07/03 06:45:57;;;;;;;15.65;12.80;;;24.10;86.90;;;;;;6202052;28;89431;-67
2023/07/03 06:48:59;;;;;;;14.93;12.30;;;24.00;87.10;;;;;;6198492;28;89096;-67
2023/07/03 06:52:01;;;;;;;15.10;12.18;;;24.10;85.70;;;;;;6212962;28;90944;-67
2023/07/03 06:55:03;;;;;;;15.45;12.10;;;24.00;85.10;;;;;;6206522;28;89119;-67
2023/07/03 06:58:06;;;;;;;15.43;12.00;;;24.00;84.90;;;;;;6203654;28;89105;-67
2023/07/03 07:01:10;;;;;;;14.98;12.43;;;24.00;84.70;;;;;;6207871;28;89255;-67
2023/07/03 07:04:13;;;;;;;15.10;12.35;;;24.00;84.30;;;;;;6205477;28;89094;-67
2023/07/03 07:07:15;;;;;;;15.32;12.57;;;24.00;83.80;;;;;;6200733;28;89170;-67
2023/07/03 07:10:17;;;;;;;15.48;12.68;;;24.00;83.30;;;;;;6197745;28;87962;-67
2023/07/03 07:13:19;;;;;;;14.57;12.35;;;24.00;82.90;;;;;;6215888;28;88543;-66
2023/07/03 07:16:24;;;;;;;17.45;12.93;;;24.00;82.70;;;;;;6216065;28;89130;-66
2023/07/03 07:19:25;;;;;;;16.27;13.13;;;24.00;82.50;;;;;;6213591;28;88773;-67
2023/07/03 07:22:27;;;;;;;14.98;12.70;;;23.90;82.50;;;;;;6205858;28;90150;-68
2023/07/03 07:25:29;;;;;;;17.08;13.00;;;24.00;82.50;;;;;;6198955;28;89073;-66
2023/07/03 07:28:32;;;;;;;16.23;12.73;;;23.90;82.30;;;;;;6199601;28;89158;-67
2023/07/03 07:31:36;;;;;;;16.95;13.15;;;24.00;82.30;;;;;;6198867;28;89110;-67
2023/07/03 07:34:38;;;;;;;16.63;12.63;;;24.00;82.10;;;;;;6200272;28;89578;-67
2023/07/03 07:37:40;;;;;;;15.63;12.48;;;23.90;81.70;;;;;;6212820;28;88876;-67
2023/07/03 07:40:42;;;;;;;16.83;13.10;;;23.90;81.60;;;;;;6204436;28;88714;-67
2023/07/03 07:43:44;;;;;;;16.95;12.82;;;24.00;81.50;;;;;;6204127;28;88642;-67
2023/07/03 07:46:48;;;;;;;14.95;12.63;;;23.90;81.80;;;;;;6200656;28;89067;-67
2023/07/03 07:49:50;;;;;;;17.50;12.93;;;23.90;81.80;;;;;;6202822;28;88322;-67
2023/07/03 07:52:51;;;;;;;14.98;12.02;;;23.90;81.80;;;;;;6206001;28;90053;-67
2023/07/03 07:55:58;;;;;;;16.05;12.30;;;23.90;81.80;;;;;;6211576;28;89125;-67
2023/07/03 07:59:00;;;;;;;17.88;13.77;;;23.90;81.50;;;;;;6210309;28;89310;-68
2023/07/03 08:02:04;;;;;;;15.52;12.88;;;23.90;81.40;;;;;;6207439;28;89440;-68
2023/07/03 08:05:06;;;;;;;15.07;13.35;;;23.90;81.50;;;;;;6206776;28;89102;-67
2023/07/03 08:08:08;;;;;;;16.58;12.90;;;23.90;81.50;;;;;;6205949;28;89080;-68
2023/07/03 08:11:11;;;;;;;17.95;13.32;;;24.00;81.80;;;;;;6200621;28;88986;-67
2023/07/03 08:14:13;;;;;;;18.20;13.38;;;23.90;82.00;;;;;;6223787;28;88618;-67
2023/07/03 08:17:16;;;;;;;16.17;12.70;;;23.90;82.00;;;;;;6216411;28;89095;-67
2023/07/03 08:20:18;;;;;;;17.08;13.27;;;24.00;82.50;;;;;;6229629;28;89132;-68
2023/07/03 08:23:20;;;;;;;16.25;13.23;;;23.90;82.60;;;;;;6216374;28;89911;-67
2023/07/03 08:26:24;;;;;;;16.30;13.18;;;24.00;82.40;;;;;;6210381;28;89104;-67
2023/07/03 08:29:26;;;;;;;17.52;12.70;;;23.90;82.70;;;;;;6225989;28;89173;-67
2023/07/03 08:32:30;;;;;;;15.13;13.20;;;23.90;82.90;;;;;;6216820;28;89186;-67
2023/07/03 08:35:31;;;;;;;17.02;12.90;;;23.90;83.00;;;;;;6197172;28;89132;-68
2023/07/03 08:38:34;;;;;;;16.92;13.25;;;23.90;83.00;;;;;;6194802;28;89040;-67
2023/07/03 08:41:56;;;;;;;16.02;12.88;;;23.90;83.10;;;;;;6196332;28;89101;-67
2023/07/03 08:44:59;;;;;;;16.10;12.68;;;24.00;83.00;;;;;;6196426;28;88691;-67
2023/07/03 08:48:06;;;;;;;14.80;12.10;;;24.00;82.60;;;;;;6208949;28;89370;-67
2023/07/03 08:51:14;;;;;;;16.10;12.50;;;23.90;82.40;;;;;;6196237;28;89196;-67
2023/07/03 08:54:20;;;;;;;15.70;12.07;;;23.90;82.30;;;;;;6221499;28;90418;-67
2023/07/03 08:57:24;;;;;;;17.52;13.25;;;23.90;82.30;;;;;;6210419;28;89331;-67
2023/07/03 09:00:28;;;;;;;16.13;13.00;;;24.00;82.20;;;;;;6206264;28;89322;-65
2023/07/03 09:03:40;;;;;;;15.68;12.50;;;23.90;82.20;;;;;;6205767;28;88255;-67
2023/07/03 09:06:47;;;;;;;16.02;12.57;;;23.90;82.10;;;;;;6200286;28;89075;-67
2023/07/03 09:09:55;;;;;;;13.82;11.85;;;23.90;82.10;;;;;;6207519;28;88770;-67
2023/07/03 09:13:06;;;;;;;14.73;12.27;;;23.90;82.10;;;;;;6200811;28;89300;-66
2023/07/03 09:16:13;;;;;;;15.95;12.20;;;23.90;81.80;;;;;;6194765;28;88517;-67
2023/07/03 09:19:20;;;;;;;15.30;12.77;;;23.90;81.70;;;;;;6187586;28;89371;-67
2023/07/03 09:22:28;;;;;;;15.20;12.10;;;23.90;81.60;;;;;;6215829;28;89106;-67
2023/07/03 09:25:36;;;;;;;15.50;12.43;;;23.90;82.50;;;;;;6213785;28;90048;-65
2023/07/03 09:28:40;;;;;;;15.85;11.63;;;23.90;81.80;;;;;;6193938;28;88902;-67
2023/07/03 09:31:42;;;;;;;14.25;11.40;;;24.00;81.80;;;;;;6193754;28;90521;-67
2023/07/03 09:35:07;;;;;;;13.60;11.60;;;23.90;82.00;;;;;;6190061;28;88961;-68
2023/07/03 09:38:15;;;;;;;14.48;11.30;;;23.90;82.00;;;;;;6210265;28;89739;-67
2023/07/03 09:41:26;;;;;;;13.77;11.38;;;24.00;82.50;;;;;;6212756;28;89376;-67
2023/07/03 09:44:28;;;;;;;14.10;11.68;;;24.00;82.60;;;;;;6195760;28;89337;-67
2023/07/03 09:47:30;;;;;;;14.60;11.93;;;24.00;82.30;;;;;;6204786;28;88461;-67
2023/07/03 09:50:36;;;;;;;14.07;11.48;;;24.00;82.10;;;;;;6206737;28;89422;-67
2023/07/03 09:53:40;;;;;;;14.90;11.60;;;24.00;82.50;;;;;;6207624;28;89358;-68
2023/07/03 09:56:42;;;;;;;13.48;10.98;;;24.00;82.60;;;;;;6194297;28;90520;-67
2023/07/03 09:59:44;;;;;;;15.13;12.05;;;24.00;82.60;;;;;;6187412;28;88295;-67
2023/07/03 10:02:46;;;;;;;14.50;11.38;;;24.00;82.50;;;;;;6196480;28;87971;-67
2023/07/03 10:05:49;;;;;;;14.65;12.02;;;24.00;82.50;;;;;;6203517;28;89231;-67
2023/07/03 10:08:52;;;;;;;15.85;11.85;;;24.00;82.40;;;;;;6209969;28;89087;-67
2023/07/03 10:12:02;;;;;;;14.38;11.82;;;23.90;82.20;;;;;;6220961;28;89231;-68
2023/07/03 10:15:09;;;;;;;12.45;10.65;;;24.00;81.60;;;;;;6202911;28;88207;-68
2023/07/03 10:18:16;;;;;;;14.15;11.18;;;24.00;82.20;;;;;;6192680;28;88686;-68
2023/07/03 10:21:21;;;;;;;14.90;11.75;;;24.00;82.80;;;;;;6200646;28;89016;-68
2023/07/03 10:24:24;;;;;;;13.55;10.93;;;24.00;83.10;;;;;;6197372;28;89177;-67
2023/07/03 10:27:29;;;;;;;12.57;10.82;;;24.00;83.50;;;;;;6186542;28;89998;-68
2023/07/03 10:30:35;;;;;;;12.98;11.05;;;24.00;83.70;;;;;;6191719;28;89477;-68
2023/07/03 10:33:43;;;;;;;13.25;10.60;;;24.00;83.70;;;;;;6195490;28;89427;-68
2023/07/03 10:36:49;;;;;;;13.98;10.55;;;24.00;83.40;;;;;;6196641;28;89220;-68
2023/07/03 10:39:54;;;;;;;13.45;11.35;;;24.00;83.10;;;;;;6195634;28;89102;-68
2023/07/03 10:43:00;;;;;;;12.65;9.98;;;24.00;82.80;;;;;;6193523;28;89078;-68
2023/07/03 10:46:05;;;;;;;12.13;10.02;;;24.00;82.20;;;;;;6194786;28;89178;-68
2023/07/03 10:49:12;;;;;;;11.95;10.07;;;24.00;81.60;;;;;;6196431;28;88391;-68
2023/07/03 10:52:30;;;;;;;11.45;9.52;;;24.00;81.50;;;;;;6201129;28;87108;-68
2023/07/03 10:55:39;;;;;;;10.77;9.27;;;24.00;81.00;;;;;;6208643;28;90281;-68
2023/07/03 10:58:49;;;;;;;14.40;9.75;;;24.00;80.80;;;;;;6194806;28;89990;-68
2023/07/03 11:01:57;;;;;;;12.25;9.75;;;24.00;80.70;;;;;;6203784;28;89098;-68
2023/07/03 11:05:10;;;;;;;14.00;10.13;;;24.00;80.50;;;;;;6209925;28;89446;-68
2023/07/03 11:08:23;;;;;;;12.68;9.80;;;24.00;80.50;;;;;;6204725;28;89111;-68
2023/07/03 11:11:36;;;;;;;12.98;9.38;;;24.00;80.50;;;;;;6209188;28;89207;-68
2023/07/03 11:14:48;;;;;;;13.25;9.40;;;24.00;80.30;;;;;;6204305;28;87958;-68
2023/07/03 11:18:05;;;;;;;11.65;9.25;;;24.00;80.30;;;;;;6211364;28;88034;-68
2023/07/03 11:21:17;;;;;;;10.40;9.05;;;24.00;80.30;;;;;;6208182;28;88361;-69
2023/07/03 11:24:25;;;;;;;11.55;9.80;;;24.00;80.30;;;;;;6201482;28;88014;-68
2023/07/03 11:27:34;;;;;;;11.07;9.68;;;24.00;79.90;;;;;;6214494;28;88895;-69
2023/07/03 11:30:39;;;;;;;12.52;10.00;;;24.00;80.10;;;;;;6205473;28;90337;-68
2023/07/03 11:33:43;;;;;;;12.07;9.50;;;24.00;80.20;;;;;;6205019;28;89176;-68
2023/07/03 11:36:47;;;;;;;12.88;9.80;;;24.00;81.10;;;;;;6203008;28;88383;-68
2023/07/03 11:39:51;;;;;;;12.95;10.10;;;24.00;80.20;;;;;;6198006;28;89011;-68
2023/07/03 11:43:22;;;;;;;12.57;9.75;;;24.00;80.30;;;;;;6206814;28;88416;-68
2023/07/03 11:46:26;;;;;;;11.90;9.52;;;24.00;80.60;;;;;;6205192;28;89194;-68
2023/07/03 11:49:33;;;;;;;13.60;10.23;;;24.00;80.60;;;;;;6202088;28;89273;-68
2023/07/03 11:52:36;;;;;;;12.07;9.73;;;24.00;80.80;;;;;;6202989;28;88662;-68
2023/07/03 11:55:40;;;;;;;12.50;9.63;;;24.00;80.90;;;;;;6202750;28;88133;-68
2023/07/03 11:58:43;;;;;;;14.27;10.38;;;24.00;81.00;;;;;;6204862;28;89344;-68
2023/07/03 12:01:45;;;;;;;12.50;9.95;;;24.00;81.10;;;;;;6216465;28;90348;-68
2023/07/03 12:04:51;;;;;;;14.23;10.77;;;24.00;81.40;;;;;;6210223;28;88035;-68
2023/07/03 12:07:53;;;;;;;13.90;10.70;;;24.00;81.50;;;;;;6207483;28;89106;-68
2023/07/03 12:11:03;;;;;;;13.10;10.00;;;24.00;81.70;;;;;;6223394;28;89149;-68
2023/07/03 12:14:06;;;;;;;13.23;10.60;;;24.00;82.00;;;;;;6208147;28;90462;-68
2023/07/03 12:17:17;;;;;;;12.32;10.18;;;24.00;81.90;;;;;;6214511;28;89114;-68
2023/07/03 12:20:21;;;;;;;12.57;10.02;;;24.00;82.00;;;;;;6225773;28;89100;-68
2023/07/03 12:23:37;;;;;;;12.30;10.02;;;24.00;82.00;;;;;;6206688;28;88656;-68
2023/07/03 12:27:03;;;;;;;14.57;10.88;;;24.00;82.30;;;;;;6214133;28;89375;-68
2023/07/03 12:30:07;;;;;;;12.75;10.63;;;24.00;81.80;;;;;;6216405;28;90337;-67
2023/07/03 12:33:19;;;;;;;12.48;10.23;;;24.00;81.80;;;;;;6218475;28;90445;-68
2023/07/03 12:36:27;;;;;;;13.02;10.27;;;24.00;82.00;;;;;;6218009;28;89255;-68
2023/07/03 12:39:30;;;;;;;12.55;10.50;;;24.00;82.20;;;;;;6199826;28;88983;-68
2023/07/03 12:42:33;;;;;;;14.00;10.45;;;24.10;82.30;;;;;;6203611;28;88250;-68
2023/07/03 12:45:35;;;;;;;13.18;10.48;;;24.00;82.20;;;;;;6204025;28;89968;-68
2023/07/03 12:48:37;;;;;;;11.88;10.18;;;24.00;82.40;;;;;;6201115;28;89265;-68
2023/07/03 12:51:43;;;;;;;12.23;10.00;;;24.00;82.50;;;;;;6217299;28;88123;-68
2023/07/03 12:54:45;;;;;;;11.18;9.98;;;24.00;82.50;;;;;;6206464;28;88330;-68
2023/07/03 12:57:48;;;;;;;11.30;9.75;;;24.00;82.50;;;;;;6197428;28;89377;-68
2023/07/03 13:00:59;;;;;;;11.98;10.65;;;24.10;82.50;;;;;;6194322;28;89352;-68
2023/07/03 13:04:02;;;;;;;12.38;10.25;;;24.00;82.50;;;;;;6195286;28;89998;-68
2023/07/03 13:07:05;;;;;;;13.80;10.68;;;24.10;82.70;;;;;;6208782;28;88933;-68
2023/07/03 13:10:12;;;;;;;12.43;10.77;;;24.10;82.80;;;;;;6192193;28;88176;-68
2023/07/03 13:13:20;;;;;;;13.27;10.77;;;24.00;82.70;;;;;;6193460;28;89086;-68
2023/07/03 13:16:22;;;;;;;12.85;10.93;;;24.00;82.80;;;;;;6206360;28;89079;-68
2023/07/03 13:19:30;;;;;;;11.75;9.98;;;24.00;82.70;;;;;;6198501;28;89099;-68
2023/07/03 13:22:33;;;;;;;12.13;10.23;;;24.00;82.70;;;;;;6203793;28;89064;-68
2023/07/03 13:25:37;;;;;;;11.75;10.05;;;24.10;82.70;;;;;;6205398;28;89173;-67
2023/07/03 13:28:51;;;;;;;13.02;10.82;;;24.00;83.60;;;;;;6215503;28;89489;-67
2023/07/03 13:31:54;;;;;;;11.65;9.95;;;24.10;83.40;;;;;;6222800;28;89060;-67
2023/07/03 13:34:58;;;;;;;11.98;10.40;;;24.10;83.30;;;;;;6194646;28;90052;-68
2023/07/03 13:38:26;;;;;;;12.55;10.38;;;24.10;83.70;;;;;;6204996;28;89087;-67
2023/07/03 13:41:28;;;;;;;13.00;9.98;;;24.10;83.60;;;;;;6207714;28;88410;-68
2023/07/03 13:44:33;;;;;;;11.73;9.73;;;24.10;83.60;;;;;;6229669;28;90071;-68
2023/07/03 13:47:35;;;;;;;11.90;10.05;;;24.10;83.50;;;;;;6200468;28;93679;-68
2023/07/03 13:50:37;;;;;;;12.60;10.25;;;24.10;83.50;;;;;;6195218;28;90232;-68
2023/07/03 13:53:39;;;;;;;14.02;10.88;;;24.00;83.50;;;;;;6208931;28;88994;-67
2023/07/03 13:56:42;;;;;;;12.63;10.10;;;24.10;83.50;;;;;;6200335;28;88375;-68
2023/07/03 13:59:45;;;;;;;13.45;10.75;;;24.10;83.70;;;;;;6193290;28;89058;-68
2023/07/03 14:02:47;;;;;;;13.93;10.63;;;24.10;83.80;;;;;;6202366;28;89101;-68
2023/07/03 14:05:49;;;;;;;13.80;10.48;;;24.10;83.70;;;;;;6202799;28;89152;-68
2023/07/03 14:08:52;;;;;;;12.70;10.38;;;24.10;83.50;;;;;;6198749;28;89209;-68
2023/07/03 14:11:54;;;;;;;11.65;10.15;;;24.10;83.50;;;;;;6202183;28;89483;-68
2023/07/03 14:14:57;;;;;;;11.77;9.68;;;24.10;83.40;;;;;;6196261;28;89071;-68
2023/07/03 14:17:59;;;;;;;13.45;10.07;;;24.10;83.40;;;;;;6188470;28;89200;-68
2023/07/03 14:21:01;;;;;;;12.00;10.15;;;24.10;83.50;;;;;;6202449;28;89438;-69
2023/07/03 14:24:03;;;;;;;12.02;9.65;;;24.10;83.40;;;;;;6189977;28;89242;-68
2023/07/03 14:27:06;;;;;;;11.68;9.57;;;24.10;83.20;;;;;;6195222;28;87291;-68
2023/07/03 14:30:11;;;;;;;12.85;10.30;;;24.10;83.20;;;;;;6192308;28;90748;-67
2023/07/03 14:33:13;;;;;;;11.88;10.00;;;24.10;83.30;;;;;;6204833;28;89082;-68
2023/07/03 14:36:15;;;;;;;15.07;10.23;;;24.10;83.30;;;;;;6192983;28;90080;-68
2023/07/03 14:39:17;;;;;;;13.50;10.55;;;24.10;83.30;;;;;;6191237;28;88315;-68
2023/07/03 14:42:19;;;;;;;11.32;9.90;;;24.10;83.50;;;;;;6192355;28;89363;-68
2023/07/03 14:45:23;;;;;;;15.15;10.38;;;24.10;83.50;;;;;;6203145;28;89563;-68
2023/07/03 14:48:25;;;;;;;12.30;9.80;;;24.10;83.50;;;;;;6203036;28;89067;-68
2023/07/03 14:51:27;;;;;;;12.32;9.82;;;24.10;83.30;;;;;;6204274;28;87989;-69
2023/07/03 14:54:29;;;;;;;11.15;9.23;;;24.10;83.50;;;;;;6208888;28;89118;-68
2023/07/03 14:57:31;;;;;;;12.43;9.95;;;24.00;83.50;;;;;;6211272;28;88563;-69
2023/07/03 15:00:34;;;;;;;12.13;10.30;;;24.00;83.50;;;;;;6197977;28;88431;-68
2023/07/03 15:03:36;;;;;;;12.52;9.57;;;24.10;83.50;;;;;;6192259;28;89380;-68
2023/07/03 15:06:39;;;;;;;11.88;9.57;;;24.10;83.50;;;;;;6196267;28;90164;-68
2023/07/03 15:09:41;;;;;;;12.25;9.95;;;24.10;83.50;;;;;;6199988;28;88219;-69
2023/07/03 15:12:45;;;;;;;13.60;10.02;;;24.10;83.50;;;;;;6209528;28;89357;-69
2023/07/03 15:15:49;;;;;;;12.38;9.77;;;24.10;83.60;;;;;;6195273;28;88831;-68
2023/07/03 15:18:51;;;;;;;12.23;10.02;;;24.10;83.80;;;;;;6212916;28;89113;-68
2023/07/03 15:21:53;;;;;;;10.65;9.50;;;24.10;83.80;;;;;;6204464;28;89043;-69
2023/07/03 15:24:55;;;;;;;11.20;9.70;;;24.10;84.10;;;;;;6203824;28;89025;-67
2023/07/03 15:27:57;;;;;;;12.25;9.98;;;24.10;84.10;;;;;;6211920;28;88437;-68
2023/07/03 15:31:02;;;;;;;12.52;9.95;;;24.10;84.00;;;;;;6214447;28;89050;-68
2023/07/03 15:34:04;;;;;;;12.43;9.88;;;24.10;83.90;;;;;;6211458;28;89182;-68
2023/07/03 15:37:07;;;;;;;13.43;10.02;;;24.10;84.30;;;;;;6210910;28;90345;-68
2023/07/03 15:40:10;;;;;;;12.25;9.77;;;24.10;84.20;;;;;;6196882;28;87907;-67
2023/07/03 15:43:12;;;;;;;10.55;9.38;;;24.10;84.50;;;;;;6201375;28;89197;-67